Flight Track Log - Related Links

Times and Time Zones

All times are in EDT time to prevent confusion due to time zone crossing. See the N904ER flight status page for this flight to view local times or setup timezone preferences in your user account.

Time Position Orientation Groundspeed Altitude Reporting Facility
EDT Latitude Longitude Course Direction KTS MPH feet Rate Location/Type
Wed 08:20:08 PM 27.9167 -82.7500 270° West 130 150 1,600  Level Tampa TRACON
Wed 08:21:02 PM 27.9167 -82.8000 270° West 141 162 2,100 611 Climbing Tampa TRACON
Wed 08:21:56 PM 27.9500 -82.8167 336° Northwest 128 147 2,700 526 Climbing Tampa TRACON
Wed 08:22:56 PM 27.9667 -82.8000 41° Northeast 120 138 3,100 158 Climbing Tampa TRACON
Wed 08:23:50 PM 27.9667 -82.7667 90° East 124 143 3,000 -50 Descending Tampa TRACON
Wed 08:24:56 PM 27.9667 -82.7167 90° East 122 140 3,000  Level Tampa TRACON
Wed 08:25:50 PM 27.9833 -82.6833 60° Northeast 125 144 3,000  Level Tampa TRACON
Wed 08:26:50 PM 27.9667 -82.6500 120° Southeast 122 140 3,000  Level Tampa TRACON
Wed 08:27:50 PM 27.9667 -82.6167 90° East 124 143 3,000  Level Tampa TRACON
Wed 08:28:50 PM 27.9667 -82.5667 90° East 123 142 3,000  Level Tampa TRACON
Wed 08:29:38 PM 27.9667 -82.5333 90° East 124 143 3,000 136 Level Tampa TRACON
Wed 08:31:02 PM 27.9833 -82.5000 60° Northeast 117 135 3,300 458 Climbing Tampa TRACON
Wed 08:32:02 PM 28.0000 -82.4667 60° Northeast 99 114 4,100 850 Climbing Tampa TRACON
Wed 08:33:02 PM 28.0167 -82.4500 41° Northeast 110 127 5,000 938 Climbing Tampa TRACON
Wed 08:33:38 PM 28.0333 -82.4333 41° Northeast 107 123 5,600 928 Climbing Tampa TRACON
Wed 08:34:39 PM 28.0500 -82.4000 60° Northeast 104 120 6,500 667 Climbing Tampa TRACON
Wed 08:35:44 PM 28.0833 -82.3667 41° Northeast 120 138 7,000 252 Climbing Tampa TRACON
Wed 08:36:38 PM 28.1000 -82.3500 41° Northeast 154 177 7,000  Level Tampa TRACON
Wed 08:38:03 PM 28.1500 -82.3000 41° Northeast 143 165 7,000  Level Tampa TRACON
Wed 08:39:03 PM 28.1667 -82.2667 60° Northeast 141 162 7,000  Level Tampa TRACON
Wed 08:39:57 PM 28.1833 -82.2333 60° Northeast 141 162 7,000  Level Tampa TRACON
Wed 08:42:04 PM 28.2500 -82.1667 41° Northeast 141 162 7,000  Level Orlando TRACON
Wed 08:43:04 PM 28.2833 -82.1333 41° Northeast 140 161 7,000  Level Orlando TRACON
Wed 08:44:04 PM 28.3000 -82.1000 60° Northeast 139 160 7,000  Level Orlando TRACON
Wed 08:44:58 PM 28.3333 -82.0833 24° Northeast 139 160 7,000  Level Orlando TRACON
Wed 08:45:58 PM 28.3500 -82.0500 60° Northeast 138 159 7,000  Level Orlando TRACON
Wed 08:46:58 PM 28.3833 -82.0167 41° Northeast 138 159 7,000  Level Orlando TRACON
Wed 08:47:58 PM 28.4000 -81.9833 60° Northeast 138 159 7,000 -150 Level Orlando TRACON
Wed 08:48:58 PM 28.4333 -81.9500 41° Northeast 145 167 6,700 -400 Descending Orlando TRACON
Wed 08:49:58 PM 28.4667 -81.9167 41° Northeast 153 176 6,200 -550 Descending Orlando TRACON
Wed 08:50:58 PM 28.5000 -81.8833 41° Northeast 154 177 5,600 -550 Descending Orlando TRACON
Wed 08:51:58 PM 28.5167 -81.8500 60° Northeast 154 177 5,100 -350 Descending Orlando TRACON
Wed 08:52:58 PM 28.5500 -81.8167 41° Northeast 148 170 4,900 -99 Descending Orlando TRACON
Wed 08:53:59 PM 28.5833 -81.7833 41° Northeast 132 152 4,900  Level Orlando TRACON
Wed 08:54:59 PM 28.6000 -81.7500 60° Northeast 131 151 4,900  Level Orlando TRACON
Wed 08:55:59 PM 28.6333 -81.7167 41° Northeast 131 151 4,900 -100 Level Orlando TRACON
Wed 08:56:59 PM 28.6500 -81.6833 60° Northeast 133 153 4,700 -300 Descending Orlando TRACON
Wed 08:57:59 PM 28.6833 -81.6667 24° Northeast 146 168 4,300 -450 Descending Orlando TRACON
Wed 08:58:59 PM 28.7167 -81.6333 41° Northeast 147 169 3,800 -500 Descending Orlando TRACON
Wed 08:59:59 PM 28.7333 -81.5833 69° East 148 170 3,300 -450 Descending Orlando TRACON
Wed 09:00:59 PM 28.7667 -81.5500 41° Northeast 145 167 2,900 -200 Descending Orlando TRACON
Wed 09:01:59 PM 28.8000 -81.5333 24° Northeast 133 153 2,900  Level Orlando TRACON
Wed 09:02:59 PM 28.8167 -81.5000 60° Northeast 124 143 2,900  Level Orlando TRACON
Wed 09:04:33 PM 28.8514 -81.4536 49° Northeast 125 144 2,900  Level Jacksonville Center
Wed 09:05:33 PM 28.8761 -81.4272 43° Northeast 125 144 2,900  Level Jacksonville Center
Wed 09:06:34 PM 28.8989 -81.4008 45° Northeast 124 143 2,900  Level Jacksonville Center
Wed 09:07:34 PM 28.9214 -81.3697 50° Northeast 124 143 2,900  Level Jacksonville Center
Wed 09:08:35 PM 28.9461 -81.3408 46° Northeast 125 144 2,900 49 Level Jacksonville Center
Wed 09:09:36 PM 28.9603 -81.3097 63° Northeast 121 139 3,000 50 Climbing Jacksonville Center
Wed 09:10:36 PM 28.9642 -81.2717 83° East 118 136 3,000  Level Jacksonville Center
Wed 09:11:37 PM 28.9697 -81.2314 81° East 119 137 3,000  Level Jacksonville Center
Wed 09:12:38 PM 28.9756 -81.1931 80° East 119 137 3,000  Level Jacksonville Center
Wed 09:13:38 PM 28.9814 -81.1550 80° East 121 139 3,000  Level Jacksonville Center
Wed 09:14:45 PM 28.9892 -81.1122 78° East 120 138 3,000  Level Jacksonville Center
Wed 09:15:46 PM 28.9928 -81.0742 84° East 121 139 3,000  Level Jacksonville Center
Wed 09:16:46 PM 28.9964 -81.0386 83° East 121 139 3,000  Level Jacksonville Center
Wed 09:17:47 PM 29.0042 -81.0006 77° East 121 139 3,000 -149 Level Jacksonville Center
Wed 09:18:47 PM 29.0269 -80.9808 37° Northeast 145 167 2,700 -545 Descending Jacksonville Center
Wed 09:19:48 PM 29.0647 -81.0039 332° Northwest 161 185 1,900 -590 Descending Jacksonville Center
Wed 09:20:49 PM 29.1025 -81.0175 343° North 122 140 1,500 -397 Descending Jacksonville Center
Wed 09:21:49 PM 29.1297 -81.0314 336° Northwest 104 120 1,100 -545 Descending Jacksonville Center
Wed 09:22:50 PM 29.1572 -81.0428 340° North 112 129 400 -689 Descending Jacksonville Center
Wed 09:25:00 PM 29.1667 -81.0500 336° Northwest  Level FlightAware Approximate
Wed 09:32:00 PM 29.1799 -81.0581 336° Northwest  Level Estimated
Wed 09:33:00 PM 29.1799 -81.0581 336° Northwest  Level Estimated

Login

Don't have an account? Register now (free) for customized features, flight alerts, and more!